createdAt,value
2022-09-05T00:02:03.085Z,99727.59
2022-09-05T00:05:07.141Z,99730.16
2022-09-05T00:07:58.726Z,99733.22
2022-09-05T00:11:39.370Z,99735.00
2022-09-05T00:14:14.413Z,99733.91
2022-09-05T00:16:56.214Z,99740.16
2022-09-05T00:24:27.564Z,99736.63
2022-09-05T00:24:35.702Z,99733.75
2022-09-05T00:25:53.236Z,99750.13
2022-09-05T00:28:31.091Z,99743.88
2022-09-05T00:31:53.353Z,99743.72
2022-09-05T00:34:48.447Z,99742.59
2022-09-05T00:37:37.135Z,99742.59
2022-09-05T00:40:39.332Z,99745.63
2022-09-05T00:43:10.010Z,99737.47
2022-09-05T00:45:47.616Z,99736.16
2022-09-05T00:48:25.688Z,99742.28
2022-09-05T00:51:01.261Z,99742.59
2022-09-05T00:53:33.935Z,99739.25
2022-09-05T00:56:18.887Z,99740.34
2022-09-05T00:59:03.982Z,99747.25
2022-09-05T01:01:59.220Z,99733.00
2022-09-05T01:05:03.701Z,99736.69
2022-09-05T01:07:44.188Z,99739.56
2022-09-05T01:10:31.714Z,99743.75
2022-09-05T01:13:09.163Z,99749.53
2022-09-05T01:15:59.854Z,99750.81
2022-09-05T01:19:19.317Z,99742.16
2022-09-05T01:21:51.542Z,99737.97
2022-09-05T01:24:27.759Z,99736.72
2022-09-05T01:27:00.446Z,99738.44
2022-09-05T01:29:50.334Z,99738.78
2022-09-05T01:32:45.777Z,99737.84
2022-09-05T01:35:28.018Z,99739.25
2022-09-05T01:38:06.358Z,99732.38
2022-09-05T01:41:18.923Z,99735.25
2022-09-05T01:44:10.880Z,99728.19
2022-09-05T01:46:59.022Z,99734.16
2022-09-05T01:49:46.498Z,99729.50
2022-09-05T01:52:59.702Z,99736.06
2022-09-05T01:56:06.195Z,99730.63
2022-09-05T01:59:15.523Z,99729.50
2022-09-05T02:02:14.459Z,99729.97
2022-09-05T02:05:08.653Z,99726.75
2022-09-05T02:07:38.227Z,99728.38
2022-09-05T02:10:10.666Z,99735.75
2022-09-05T02:13:20.779Z,99732.03
2022-09-05T02:16:01.456Z,99733.66
2022-09-05T02:18:54.293Z,99730.78
2022-09-05T02:21:33.459Z,99733.03
2022-09-05T02:24:13.480Z,99727.88
2022-09-05T02:26:52.317Z,99724.84
2022-09-05T02:29:30.665Z,99733.66
2022-09-05T02:32:12.420Z,99733.16
2022-09-05T02:35:00.353Z,99737.00
2022-09-05T02:38:33.108Z,99737.66
2022-09-05T02:45:11.602Z,99731.06
2022-09-05T02:45:20.340Z,99728.34
2022-09-05T02:46:33.623Z,99732.19
2022-09-05T02:49:11.071Z,99731.72
2022-09-05T02:57:26.301Z,99720.34
2022-09-05T02:57:40.243Z,99723.72
2022-09-05T02:58:07.574Z,99715.84
2022-09-05T03:00:44.441Z,99721.94
2022-09-05T03:03:27.168Z,99724.53
2022-09-05T03:05:58.992Z,99719.69
2022-09-05T03:08:31.614Z,99720.31
2022-09-05T03:11:03.955Z,99722.56
2022-09-05T03:13:58.035Z,99727.03
2022-09-05T03:16:47.094Z,99725.41
2022-09-05T03:19:46.151Z,99727.03
2022-09-05T03:22:44.365Z,99723.81
2022-09-05T03:25:36.772Z,99719.00
2022-09-05T03:28:09.363Z,99726.03
2022-09-05T03:30:48.450Z,99726.34
2022-09-05T03:33:37.011Z,99725.22
2022-09-05T03:36:28.313Z,99723.63
2022-09-05T03:39:22.250Z,99716.09
2022-09-05T03:42:14.808Z,99719.44
2022-09-05T03:44:44.406Z,99716.25
2022-09-05T03:48:02.000Z,99727.94
2022-09-05T03:56:58.248Z,99725.84
2022-09-05T03:57:27.457Z,99730.28
2022-09-05T03:57:33.797Z,99730.91
2022-09-05T04:00:10.435Z,99728.19
2022-09-05T04:07:32.411Z,99733.81
2022-09-05T04:08:26.020Z,99738.44
2022-09-05T04:08:55.415Z,99734.78
2022-09-05T04:11:37.717Z,99727.75
2022-09-05T04:14:13.150Z,99727.56
2022-09-05T04:17:03.471Z,99733.53
2022-09-05T04:19:49.061Z,99735.72
2022-09-05T04:22:25.284Z,99729.81
2022-09-05T04:25:13.314Z,99731.41
2022-09-05T04:28:01.459Z,99729.16
2022-09-05T04:30:49.094Z,99734.13
2022-09-05T04:33:35.988Z,99733.00
2022-09-05T04:36:18.604Z,99739.09
2022-09-05T04:38:45.839Z,99734.28
2022-09-05T04:41:14.613Z,99731.88
2022-09-05T04:43:48.148Z,99734.44
2022-09-05T04:46:32.076Z,99735.34
2022-09-05T04:49:20.488Z,99733.75
2022-09-05T04:52:00.405Z,99732.97
2022-09-05T04:54:48.953Z,99741.63
2022-09-05T04:57:54.099Z,99744.06
2022-09-05T05:04:43.951Z,99739.25
2022-09-05T05:06:10.846Z,99748.34
2022-09-05T05:06:38.204Z,99750.97
2022-09-05T05:09:22.346Z,99746.66
2022-09-05T05:17:18.008Z,99748.66
2022-09-05T05:18:11.491Z,99756.44
2022-09-05T05:18:36.490Z,99760.56
2022-09-05T05:20:52.895Z,99762.38
2022-09-05T05:23:35.419Z,99757.75
2022-09-05T05:26:08.852Z,99751.63
2022-09-05T05:28:52.007Z,99756.19
2022-09-05T05:31:28.892Z,99761.06
2022-09-05T05:34:02.217Z,99758.16
2022-09-05T05:36:36.843Z,99760.47
2022-09-05T05:39:25.256Z,99760.03
2022-09-05T05:41:54.575Z,99766.75
2022-09-05T05:44:34.891Z,99759.13
2022-09-05T05:47:31.567Z,99769.28
2022-09-05T05:50:36.465Z,99775.00
2022-09-05T05:53:43.043Z,99776.31
2022-09-05T05:56:52.521Z,99784.44
2022-09-05T05:59:28.118Z,99785.47
2022-09-05T06:02:13.066Z,99793.00
2022-09-05T06:04:45.423Z,99791.75
2022-09-05T06:07:25.457Z,99793.13
2022-09-05T06:14:51.679Z,99802.50
2022-09-05T06:14:59.172Z,99799.25
2022-09-05T06:16:10.927Z,99810.81
2022-09-05T06:19:05.578Z,99807.63
2022-09-05T06:22:11.120Z,99805.75
2022-09-05T06:25:07.690Z,99803.91
2022-09-05T06:28:05.625Z,99804.25
2022-09-05T06:30:45.388Z,99808.81
2022-09-05T06:33:25.962Z,99803.69
2022-09-05T06:36:24.510Z,99809.56
2022-09-05T06:39:17.413Z,99810.88
2022-09-05T06:42:39.127Z,99810.41
2022-09-05T06:45:28.423Z,99816.44
2022-09-05T06:48:06.005Z,99812.31
2022-09-05T06:51:07.859Z,99813.97
2022-09-05T06:53:53.458Z,99848.53
2022-09-05T06:56:26.730Z,99845.31
2022-09-05T06:59:18.072Z,99847.81
2022-09-05T07:02:12.574Z,99853.34
2022-09-05T07:05:24.508Z,99852.13
2022-09-05T07:07:32.196Z,99844.25
2022-09-05T07:10:22.197Z,99840.28
2022-09-05T07:13:08.360Z,99846.16
2022-09-05T07:15:58.428Z,99835.19
2022-09-05T07:18:43.727Z,99827.28
2022-09-05T07:21:35.765Z,99824.78
2022-09-05T07:24:09.627Z,99828.63
2022-09-05T07:26:54.757Z,99839.44
2022-09-05T07:29:32.561Z,99839.81
2022-09-05T07:32:01.547Z,99831.03
2022-09-05T07:34:30.584Z,99829.38
2022-09-05T07:37:14.932Z,99832.28
2022-09-05T07:39:54.724Z,99827.25
2022-09-05T07:42:28.819Z,99831.84
2022-09-05T07:45:00.461Z,99829.75
2022-09-05T07:47:33.856Z,99822.56
2022-09-05T07:51:13.619Z,99826.47
2022-09-05T07:56:56.723Z,99838.25
2022-09-05T07:57:01.708Z,99828.25
2022-09-05T07:58:41.469Z,99825.09
2022-09-05T08:01:13.796Z,99826.09
2022-09-05T08:03:42.846Z,99827.78
2022-09-05T08:07:45.554Z,99833.38
2022-09-05T08:10:06.771Z,99827.16
2022-09-05T08:12:09.813Z,99826.78
2022-09-05T08:14:44.918Z,99820.38
2022-09-05T08:17:26.441Z,99832.78
2022-09-05T08:20:14.387Z,99820.25
2022-09-05T08:22:59.007Z,99821.19
2022-09-05T08:25:41.535Z,99809.78
2022-09-05T08:28:37.634Z,99805.50
2022-09-05T08:31:24.407Z,99807.13
2022-09-05T08:33:57.298Z,99804.81
2022-09-05T08:36:38.859Z,99803.38
2022-09-05T08:39:07.983Z,99805.81
2022-09-05T08:42:07.903Z,99802.50
2022-09-05T08:46:41.511Z,99794.47
2022-09-05T08:48:13.326Z,99799.00
2022-09-05T08:51:02.666Z,99786.78
2022-09-05T08:53:46.926Z,99793.38
2022-09-05T08:56:27.031Z,99791.56
2022-09-05T08:59:27.791Z,99785.63
2022-09-05T09:02:45.483Z,99787.41
2022-09-05T09:05:14.384Z,99779.72
2022-09-05T09:07:51.082Z,99772.63
2022-09-05T09:10:57.378Z,99774.34
2022-09-05T09:13:52.239Z,99773.09
2022-09-05T09:16:40.711Z,99757.91
2022-09-05T09:19:28.948Z,99768.00
2022-09-05T09:22:40.013Z,99764.97
2022-09-05T09:25:25.881Z,99750.81
2022-09-05T09:28:43.588Z,99748.94
2022-09-05T09:30:59.494Z,99748.19
2022-09-05T09:33:51.576Z,99756.22
2022-09-05T09:36:20.828Z,99749.16
2022-09-05T09:39:38.693Z,99744.94
2022-09-05T09:42:33.416Z,99733.78
2022-09-05T09:45:34.638Z,99737.66
2022-09-05T09:48:12.847Z,99736.88
2022-09-05T09:50:58.530Z,99737.28
2022-09-05T09:53:58.028Z,99725.47
2022-09-05T09:56:58.250Z,99722.81
2022-09-05T09:59:59.947Z,99730.72
2022-09-05T10:05:41.485Z,99720.91
2022-09-05T10:10:45.322Z,99707.19
2022-09-05T10:10:48.643Z,99715.81
2022-09-05T10:12:12.823Z,99711.22
2022-09-05T10:15:30.516Z,99702.13
2022-09-05T10:17:55.267Z,99694.66
2022-09-05T10:21:17.048Z,99690.34
2022-09-05T10:24:08.667Z,99678.94
2022-09-05T10:26:41.067Z,99674.94
2022-09-05T10:29:37.701Z,99669.41
2022-09-05T10:34:16.047Z,99660.28
2022-09-05T10:35:22.517Z,99657.09
2022-09-05T10:37:56.265Z,99654.34
2022-09-05T10:40:26.432Z,99659.09
2022-09-05T10:43:01.408Z,99655.94
2022-09-05T10:45:51.795Z,99647.56
2022-09-05T10:48:43.458Z,99654.28
2022-09-05T10:51:27.809Z,99655.41
2022-09-05T10:54:04.084Z,99650.25
2022-09-05T10:56:45.601Z,99642.22
2022-09-05T11:02:19.198Z,99640.41
2022-09-05T11:02:37.474Z,99637.88
2022-09-05T11:05:25.551Z,99636.06
2022-09-05T11:08:29.427Z,99630.31
2022-09-05T11:11:33.945Z,99627.69
2022-09-05T11:14:07.360Z,99621.06
2022-09-05T11:17:01.877Z,99612.63
2022-09-05T11:19:50.333Z,99611.41
2022-09-05T11:22:23.824Z,99603.22
2022-09-05T11:25:03.631Z,99604.59
2022-09-05T11:27:33.574Z,99599.03
2022-09-05T11:30:06.705Z,99588.69
2022-09-05T11:38:35.499Z,99589.78
2022-09-05T11:39:57.099Z,99586.38
2022-09-05T11:40:10.956Z,99595.72
2022-09-05T11:42:44.483Z,99575.34
2022-09-05T11:45:15.503Z,99574.72
2022-09-05T11:48:12.909Z,99580.97
2022-09-05T11:51:01.025Z,99572.19
2022-09-05T11:53:57.268Z,99568.97
2022-09-05T11:56:46.018Z,99566.81
2022-09-05T11:59:33.387Z,99565.28
2022-09-05T12:02:11.022Z,99563.06
2022-09-05T12:05:50.592Z,99569.41
2022-09-05T12:08:22.963Z,99562.09
2022-09-05T12:11:17.447Z,99557.31
2022-09-05T12:13:48.818Z,99561.75
2022-09-05T12:16:29.973Z,99561.19
2022-09-05T12:19:22.867Z,99556.13
2022-09-05T12:22:25.297Z,99556.63
2022-09-05T12:26:08.847Z,99546.88
2022-09-05T12:29:28.005Z,99553.47
2022-09-05T12:33:03.346Z,99544.81
2022-09-05T12:40:21.416Z,99538.41
2022-09-05T12:41:38.675Z,99538.06
2022-09-05T12:41:42.271Z,99549.53
2022-09-05T12:43:52.658Z,99539.41
2022-09-05T12:46:05.728Z,99535.19
2022-09-05T12:48:52.683Z,99523.50
2022-09-05T12:51:47.059Z,99532.97
2022-09-05T12:54:24.710Z,99522.47
2022-09-05T13:00:20.127Z,99516.44
2022-09-05T13:03:04.083Z,99515.22
2022-09-05T13:03:10.947Z,99507.63
2022-09-05T13:05:47.414Z,99498.53
2022-09-05T13:08:21.118Z,99503.78
2022-09-05T13:14:46.661Z,99497.84
2022-09-05T13:14:54.225Z,99492.59
2022-09-05T13:16:53.971Z,99495.91
2022-09-05T13:19:29.759Z,99489.91
2022-09-05T13:21:59.970Z,99480.22
2022-09-05T13:24:32.293Z,99482.47
2022-09-05T13:27:13.739Z,99488.47
2022-09-05T13:31:24.863Z,99469.06
2022-09-05T13:38:01.200Z,99477.25
2022-09-05T13:38:13.583Z,99472.59
2022-09-05T13:39:04.347Z,99462.03
2022-09-05T13:41:35.422Z,99462.84
2022-09-05T13:44:27.442Z,99466.81
2022-09-05T13:47:28.754Z,99461.63
2022-09-05T13:50:16.560Z,99467.63
2022-09-05T13:52:52.555Z,99453.47
2022-09-05T13:55:25.214Z,99458.91
2022-09-05T13:57:58.535Z,99461.41
2022-09-05T14:00:39.994Z,99457.38
2022-09-05T14:03:31.753Z,99454.09
2022-09-05T14:06:46.536Z,99454.66
2022-09-05T14:09:37.070Z,99445.34
2022-09-05T14:12:08.399Z,99440.88
2022-09-05T14:15:11.623Z,99433.09
2022-09-05T14:18:02.271Z,99427.84
2022-09-05T14:21:14.746Z,99413.31
2022-09-05T14:23:53.788Z,99436.69
2022-09-05T14:26:23.609Z,99425.84
2022-09-05T14:29:02.597Z,99424.47
2022-09-05T14:37:35.955Z,99429.41
2022-09-05T14:37:44.465Z,99411.25
2022-09-05T14:38:05.821Z,99409.03
2022-09-05T14:41:20.367Z,99410.28
2022-09-05T14:44:15.634Z,99397.41
2022-09-05T14:47:35.211Z,99396.78
2022-09-05T14:50:17.627Z,99390.22
2022-09-05T14:57:28.616Z,99401.09
2022-09-05T15:02:46.197Z,99404.13
2022-09-05T15:02:52.716Z,99407.78
2022-09-05T15:05:03.092Z,99409.22
2022-09-05T15:07:40.489Z,99407.47
2022-09-05T15:12:17.198Z,99406.78
2022-09-05T15:13:20.557Z,99403.09
2022-09-05T15:16:02.197Z,99381.94
2022-09-05T15:18:39.588Z,99383.88
2022-09-05T15:21:34.584Z,99377.59
2022-09-05T15:24:04.063Z,99374.03
2022-09-05T15:26:36.221Z,99369.09
2022-09-05T15:29:13.688Z,99366.22
2022-09-05T15:31:41.998Z,99366.72
2022-09-05T15:34:26.778Z,99372.91
2022-09-05T15:36:56.291Z,99376.25
2022-09-05T15:39:35.815Z,99379.28
2022-09-05T15:42:21.415Z,99376.50
2022-09-05T15:45:08.827Z,99382.47
2022-09-05T15:47:37.053Z,99386.50
2022-09-05T15:50:21.859Z,99380.47
2022-09-05T15:52:55.045Z,99378.78
2022-09-05T15:55:24.682Z,99381.50
2022-09-05T15:57:56.927Z,99378.84
2022-09-05T16:00:41.222Z,99378.75
2022-09-05T16:05:08.916Z,99383.16
2022-09-05T16:10:33.767Z,99371.69
2022-09-05T16:10:49.692Z,99380.78
2022-09-05T16:14:39.632Z,99379.75
2022-09-05T16:23:20.766Z,99394.47
2022-09-05T16:23:28.822Z,99390.28
2022-09-05T16:23:40.446Z,99384.44
2022-09-05T16:26:25.358Z,99385.66
2022-09-05T16:29:01.924Z,99384.44
2022-09-05T16:31:45.542Z,99382.75
2022-09-05T16:34:42.812Z,99375.47
2022-09-05T16:37:41.091Z,99380.34
2022-09-05T16:40:19.306Z,99371.66
2022-09-05T16:42:49.522Z,99374.84
2022-09-05T16:45:19.161Z,99378.00
2022-09-05T16:48:25.269Z,99364.53
2022-09-05T16:51:15.304Z,99372.78
2022-09-05T16:54:20.511Z,99370.03
2022-09-05T16:56:59.933Z,99371.59
2022-09-05T16:59:30.652Z,99376.75
2022-09-05T17:02:07.443Z,99371.59
2022-09-05T17:05:03.671Z,99368.81
2022-09-05T17:07:43.698Z,99375.13
2022-09-05T17:10:25.686Z,99375.91
2022-09-05T17:12:55.982Z,99377.88
2022-09-05T17:15:28.418Z,99378.66
2022-09-05T17:18:19.487Z,99377.84
2022-09-05T17:20:53.805Z,99384.94
2022-09-05T17:29:19.599Z,99392.78
2022-09-05T17:29:25.036Z,99385.19
2022-09-05T17:32:51.529Z,99383.88
2022-09-05T17:35:42.804Z,99390.19
2022-09-05T17:38:36.839Z,99391.75
2022-09-05T17:41:18.990Z,99398.81
2022-09-05T17:43:58.197Z,99402.72
2022-09-05T17:46:29.082Z,99407.78
2022-09-05T17:49:18.896Z,99408.44
2022-09-05T17:51:50.860Z,99398.44
2022-09-05T17:54:22.491Z,99399.16
2022-09-05T17:56:49.817Z,99394.78
2022-09-05T17:59:19.363Z,99382.53
2022-09-05T18:02:09.579Z,99400.53
2022-09-05T18:04:50.109Z,99409.16
2022-09-05T18:07:19.813Z,99395.63
2022-09-05T18:10:03.565Z,99404.59
2022-09-05T18:13:12.562Z,99405.25
2022-09-05T18:15:32.737Z,99405.56
2022-09-05T18:18:05.954Z,99398.41
2022-09-05T18:20:45.647Z,99399.91
2022-09-05T18:23:39.337Z,99399.91
2022-09-05T18:26:24.378Z,99398.56
2022-09-05T18:29:20.448Z,99405.19
2022-09-05T18:31:51.972Z,99399.63
2022-09-05T18:34:21.422Z,99403.47
2022-09-05T18:36:58.050Z,99397.06
2022-09-05T18:39:27.327Z,99409.63
2022-09-05T18:42:07.075Z,99406.00
2022-09-05T18:45:02.034Z,99402.34
2022-09-05T18:47:53.269Z,99409.78
2022-09-05T18:50:32.549Z,99403.09
2022-09-05T18:53:08.700Z,99403.84
2022-09-05T18:56:12.658Z,99407.72
2022-09-05T18:58:34.332Z,99403.69
2022-09-05T19:01:43.712Z,99411.47
2022-09-05T19:04:39.210Z,99406.63
2022-09-05T19:07:12.224Z,99414.78
2022-09-05T19:09:57.361Z,99410.69
2022-09-05T19:12:32.154Z,99411.28
2022-09-05T19:15:07.010Z,99408.38
2022-09-05T19:17:47.085Z,99410.69
2022-09-05T19:20:31.704Z,99411.84
2022-09-05T19:23:10.443Z,99409.09
2022-09-05T19:25:46.527Z,99410.69
2022-09-05T19:36:45.284Z,99399.66
2022-09-05T19:36:45.402Z,99401.25
2022-09-05T19:37:04.341Z,99402.41
2022-09-05T19:37:27.434Z,99391.84
2022-09-05T19:46:40.243Z,99393.28
2022-09-05T19:47:37.067Z,99393.75
2022-09-05T19:47:46.419Z,99385.50
2022-09-05T19:48:26.314Z,99393.28
2022-09-05T19:51:16.228Z,99397.94
2022-09-05T19:53:53.949Z,99395.63
2022-09-05T19:56:33.517Z,99405.84
2022-09-05T19:59:00.204Z,99399.09
2022-09-05T20:01:27.412Z,99393.25
2022-09-05T20:03:54.478Z,99394.72
2022-09-05T20:06:29.842Z,99403.44
2022-09-05T20:09:08.923Z,99390.44
2022-09-05T20:11:45.286Z,99394.78
2022-09-05T20:14:22.168Z,99390.81
2022-09-05T20:16:50.425Z,99392.56
2022-09-05T20:19:37.547Z,99395.41
2022-09-05T20:22:47.828Z,99392.69
2022-09-05T20:24:59.139Z,99402.16
2022-09-05T20:27:29.490Z,99404.91
2022-09-05T20:30:03.856Z,99412.75
2022-09-05T20:32:39.523Z,99413.19
2022-09-05T20:37:50.296Z,99412.38
2022-09-05T20:43:23.808Z,99415.84
2022-09-05T20:43:24.923Z,99405.66
2022-09-05T20:43:56.530Z,99409.94
2022-09-05T20:50:26.029Z,99417.69
2022-09-05T20:54:07.459Z,99404.81
2022-09-05T20:54:22.575Z,99406.41
2022-09-05T20:55:39.977Z,99405.22
2022-09-05T20:58:31.910Z,99404.81
2022-09-05T21:01:22.974Z,99401.63
2022-09-05T21:04:08.115Z,99397.72
2022-09-05T21:06:36.648Z,99398.56
2022-09-05T21:09:12.439Z,99395.41
2022-09-05T21:11:39.881Z,99398.94
2022-09-05T21:14:07.619Z,99393.00
2022-09-05T21:16:42.767Z,99385.91
2022-09-05T21:19:23.496Z,99387.44
2022-09-05T21:22:02.068Z,99386.66
2022-09-05T21:24:29.069Z,99389.06
2022-09-05T21:27:22.699Z,99381.50
2022-09-05T21:29:58.720Z,99432.59
2022-09-05T21:32:33.418Z,99444.91
2022-09-05T21:35:31.108Z,99443.41
2022-09-05T21:37:53.650Z,99477.03
2022-09-05T21:40:21.283Z,99472.78
2022-09-05T21:44:25.392Z,99477.63
2022-09-05T21:47:39.458Z,99487.09
2022-09-05T21:48:24.322Z,99487.81
2022-09-05T21:50:54.355Z,99497.94
2022-09-05T21:59:11.611Z,99487.50
2022-09-05T21:59:18.404Z,99485.47
2022-09-05T21:59:41.696Z,99493.97
2022-09-05T22:02:16.553Z,99465.78
2022-09-05T22:04:43.475Z,99465.50
2022-09-05T22:07:32.413Z,99461.25
2022-09-05T22:10:00.931Z,99456.28
2022-09-05T22:12:31.430Z,99465.00
2022-09-05T22:15:04.557Z,99473.75
2022-09-05T22:17:46.669Z,99463.63
2022-09-05T22:20:16.173Z,99450.41
2022-09-05T22:22:43.538Z,99464.28
2022-09-05T22:25:30.449Z,99488.31
2022-09-05T22:28:16.559Z,99480.13
2022-09-05T22:30:43.726Z,99457.19
2022-09-05T22:33:12.069Z,99410.19
2022-09-05T22:35:40.176Z,99413.94
2022-09-05T22:38:12.612Z,99426.59
2022-09-05T22:40:41.533Z,99409.84
2022-09-05T22:43:09.989Z,99455.09
2022-09-05T22:45:38.342Z,99556.66
2022-09-05T22:48:13.208Z,99568.19
2022-09-05T22:50:41.672Z,99608.44
2022-09-05T22:53:09.787Z,99619.88
2022-09-05T22:55:38.930Z,99619.50
2022-09-05T22:58:07.793Z,99638.03
2022-09-05T23:00:35.079Z,99629.25
2022-09-05T23:03:04.220Z,99624.38
2022-09-05T23:05:32.261Z,99640.84
2022-09-05T23:08:04.016Z,99634.47
2022-09-05T23:10:31.478Z,99629.69
2022-09-05T23:12:58.948Z,99641.59
2022-09-05T23:15:26.550Z,99645.25
2022-09-05T23:17:58.921Z,99647.66
2022-09-05T23:20:27.888Z,99644.78
2022-09-05T23:22:54.674Z,99638.97
2022-09-05T23:25:22.362Z,99623.81
2022-09-05T23:27:49.624Z,99621.53
2022-09-05T23:30:16.982Z,99605.31
2022-09-05T23:32:45.353Z,99575.19
2022-09-05T23:35:12.013Z,99570.41
2022-09-05T23:37:41.374Z,99557.41
2022-09-05T23:40:09.183Z,99536.66
2022-09-05T23:42:35.771Z,99525.69
2022-09-05T23:45:02.328Z,99533.47
2022-09-05T23:47:29.739Z,99525.38
2022-09-05T23:49:56.486Z,99506.28
2022-09-05T23:52:23.089Z,99499.22
2022-09-05T23:54:49.758Z,99472.72
2022-09-05T23:57:21.910Z,99466.59
2022-09-05T23:59:48.506Z,99454.81
